createdAt,value
2023-01-20T00:01:12.306Z,8.25
2023-01-20T00:04:13.339Z,6.40
2023-01-20T00:07:14.446Z,7.68
2023-01-20T00:10:15.513Z,7.18
2023-01-20T00:13:16.122Z,7.03
2023-01-20T00:16:16.960Z,8.35
2023-01-20T00:19:17.960Z,5.95
2023-01-20T00:22:18.813Z,6.85
2023-01-20T00:25:19.980Z,5.47
2023-01-20T00:28:20.932Z,5.90
2023-01-20T00:31:27.714Z,5.88
2023-01-20T00:34:28.616Z,7.28
2023-01-20T00:37:29.636Z,6.13
2023-01-20T00:40:30.439Z,7.93
2023-01-20T00:43:31.356Z,6.68
2023-01-20T00:46:32.392Z,6.10
2023-01-20T00:49:33.581Z,7.65
2023-01-20T00:52:34.540Z,8.02
2023-01-20T00:55:35.590Z,6.22
2023-01-20T00:58:36.885Z,15.95
2023-01-20T01:01:37.640Z,5.78
2023-01-20T01:04:38.287Z,9.90
2023-01-20T01:07:39.464Z,5.95
2023-01-20T01:10:40.828Z,9.80
2023-01-20T01:13:41.806Z,7.20
2023-01-20T01:16:43.395Z,6.78
2023-01-20T01:19:44.283Z,7.15
2023-01-20T01:22:45.126Z,7.57
2023-01-20T01:25:46.115Z,6.72
2023-01-20T01:28:50.628Z,7.45
2023-01-20T01:31:51.818Z,6.55
2023-01-20T01:34:52.705Z,6.95
2023-01-20T01:37:53.417Z,6.57
2023-01-20T01:40:55.195Z,5.68
2023-01-20T01:44:15.380Z,5.75
2023-01-20T01:47:16.284Z,5.57
2023-01-20T01:50:25.350Z,9.00
2023-01-20T01:53:29.034Z,6.88
2023-01-20T01:56:31.216Z,7.75
2023-01-20T01:59:32.309Z,5.22
2023-01-20T02:02:33.603Z,6.25
2023-01-20T02:05:35.430Z,6.53
2023-01-20T02:08:37.109Z,21.15
2023-01-20T02:11:44.007Z,7.72
2023-01-20T02:14:52.632Z,8.80
2023-01-20T02:18:15.859Z,5.20
2023-01-20T02:21:49.112Z,7.68
2023-01-20T02:24:59.868Z,6.43
2023-01-20T02:28:06.460Z,7.32
2023-01-20T02:31:17.881Z,6.68
2023-01-20T02:34:43.049Z,5.47
2023-01-20T02:37:47.255Z,7.22
2023-01-20T02:40:54.197Z,5.45
2023-01-20T02:44:37.253Z,5.70
2023-01-20T02:47:51.501Z,8.30
2023-01-20T02:50:58.879Z,6.82
2023-01-20T02:54:05.472Z,4.93
2023-01-20T02:57:11.759Z,4.75
2023-01-20T03:00:18.312Z,8.32
2023-01-20T03:03:25.263Z,5.53
2023-01-20T03:06:30.588Z,5.38
2023-01-20T03:09:37.581Z,5.30
2023-01-20T03:16:09.766Z,8.85
2023-01-20T03:19:11.047Z,7.15
2023-01-20T03:22:11.952Z,5.45
2023-01-20T03:25:14.621Z,6.82
2023-01-20T03:28:15.971Z,4.95
2023-01-20T03:31:34.857Z,7.43
2023-01-20T03:34:39.629Z,5.95
2023-01-20T03:37:40.843Z,5.60
2023-01-20T03:40:57.708Z,6.03
2023-01-20T03:44:27.710Z,7.32
2023-01-20T03:47:46.941Z,14.00
2023-01-20T03:50:52.356Z,5.80
2023-01-20T03:54:08.286Z,6.38
2023-01-20T03:57:17.285Z,7.03
2023-01-20T04:00:21.147Z,4.72
2023-01-20T04:03:28.568Z,6.22
2023-01-20T04:09:35.431Z,6.40
2023-01-20T04:12:36.219Z,6.63
2023-01-20T04:15:41.247Z,5.68
2023-01-20T04:18:45.523Z,5.55
2023-01-20T04:21:52.301Z,5.35
2023-01-20T04:25:03.567Z,6.72
2023-01-20T04:28:04.452Z,5.07
2023-01-20T04:31:05.530Z,6.22
2023-01-20T04:34:07.410Z,12.30
2023-01-20T04:37:08.353Z,8.70
2023-01-20T04:40:10.295Z,7.22
2023-01-20T04:43:12.253Z,5.93
2023-01-20T04:46:14.386Z,14.23
2023-01-20T04:49:15.306Z,10.85
2023-01-20T04:52:16.996Z,7.25
2023-01-20T04:55:18.117Z,7.13
2023-01-20T04:58:18.624Z,7.38
2023-01-20T05:01:19.694Z,11.65
2023-01-20T05:04:20.585Z,9.52
2023-01-20T05:07:21.464Z,7.72
2023-01-20T05:10:22.321Z,10.52
2023-01-20T05:13:23.162Z,8.68
2023-01-20T05:16:26.082Z,10.20
2023-01-20T05:19:27.000Z,7.53
2023-01-20T05:22:29.623Z,7.45
2023-01-20T05:25:30.469Z,7.65
2023-01-20T05:28:31.163Z,7.03
2023-01-20T05:31:32.359Z,6.18
2023-01-20T05:34:32.912Z,16.92
2023-01-20T05:37:33.972Z,12.15
2023-01-20T05:40:34.880Z,7.05
2023-01-20T05:43:36.323Z,8.57
2023-01-20T05:46:37.200Z,6.10
2023-01-20T05:49:38.139Z,7.20
2023-01-20T05:52:38.822Z,6.10
2023-01-20T05:55:40.107Z,8.70
2023-01-20T05:58:40.982Z,8.52
2023-01-20T06:01:42.124Z,8.90
2023-01-20T06:04:43.003Z,12.00
2023-01-20T06:07:43.708Z,6.90
2023-01-20T06:10:44.535Z,8.05
2023-01-20T06:13:49.022Z,6.65
2023-01-20T06:16:50.382Z,7.03
2023-01-20T06:19:51.260Z,9.32
2023-01-20T06:22:56.239Z,7.95
2023-01-20T06:26:06.166Z,5.15
2023-01-20T06:29:07.203Z,8.70
2023-01-20T06:32:08.094Z,8.15
2023-01-20T06:35:11.242Z,7.35
2023-01-20T06:38:12.235Z,7.57
2023-01-20T06:41:13.488Z,10.00
2023-01-20T06:44:14.533Z,6.93
2023-01-20T06:47:15.088Z,9.77
2023-01-20T06:50:17.109Z,6.38
2023-01-20T06:53:17.925Z,7.47
2023-01-20T06:56:18.890Z,6.07
2023-01-20T06:59:19.715Z,7.18
2023-01-20T07:02:20.664Z,10.02
2023-01-20T07:05:21.395Z,6.93
2023-01-20T07:08:22.339Z,6.93
2023-01-20T07:11:23.783Z,8.32
2023-01-20T07:14:24.335Z,7.57
2023-01-20T07:17:25.283Z,7.97
2023-01-20T07:20:26.671Z,9.45
2023-01-20T07:23:28.648Z,14.43
2023-01-20T07:26:30.374Z,8.63
2023-01-20T07:29:31.381Z,12.50
2023-01-20T07:32:32.419Z,8.82
2023-01-20T07:35:33.433Z,20.58
2023-01-20T07:38:34.964Z,14.30
2023-01-20T07:41:35.622Z,16.35
2023-01-20T07:44:36.364Z,16.02
2023-01-20T07:47:37.248Z,13.32
2023-01-20T07:50:38.285Z,13.50
2023-01-20T07:53:41.070Z,14.38
2023-01-20T07:56:41.769Z,11.35
2023-01-20T07:59:42.344Z,12.95
2023-01-20T08:02:43.376Z,12.63
2023-01-20T08:05:44.430Z,13.57
2023-01-20T08:08:46.040Z,12.93
2023-01-20T08:11:47.027Z,13.50
2023-01-20T08:14:47.776Z,11.40
2023-01-20T08:17:54.046Z,10.63
2023-01-20T08:20:54.610Z,17.63
2023-01-20T08:23:56.720Z,12.05
2023-01-20T08:26:57.459Z,13.32
2023-01-20T08:29:58.483Z,13.20
2023-01-20T08:32:59.199Z,11.48
2023-01-20T08:36:14.374Z,12.10
2023-01-20T08:39:18.635Z,12.15
2023-01-20T08:42:19.458Z,12.80
2023-01-20T08:45:20.485Z,9.50
2023-01-20T08:48:21.620Z,9.82
2023-01-20T08:51:29.317Z,10.50
2023-01-20T08:54:34.600Z,8.02
2023-01-20T08:57:35.776Z,10.13
2023-01-20T09:00:36.384Z,9.85
2023-01-20T09:03:37.392Z,11.02
2023-01-20T09:06:50.479Z,11.93
2023-01-20T09:09:51.376Z,13.40
2023-01-20T09:12:52.113Z,10.65
2023-01-20T09:15:53.739Z,11.40
2023-01-20T09:18:54.778Z,11.73
2023-01-20T09:21:55.975Z,9.35
2023-01-20T09:24:56.548Z,14.10
2023-01-20T09:28:01.486Z,13.65
2023-01-20T09:31:05.605Z,12.05
2023-01-20T09:34:06.358Z,15.68
2023-01-20T09:37:25.960Z,10.07
2023-01-20T09:40:54.343Z,9.80
2023-01-20T09:44:02.238Z,9.90
2023-01-20T09:47:20.980Z,10.85
2023-01-20T09:50:47.507Z,9.48
2023-01-20T09:54:03.158Z,12.13
2023-01-20T09:57:08.824Z,8.90
2023-01-20T10:00:19.211Z,10.98
2023-01-20T10:03:37.240Z,14.25
2023-01-20T10:07:59.144Z,8.82
2023-01-20T10:11:16.473Z,10.70
2023-01-20T10:14:44.759Z,10.90
2023-01-20T10:18:20.377Z,11.40
2023-01-20T10:21:45.533Z,10.02
2023-01-20T10:25:28.394Z,9.55
2023-01-20T10:28:36.859Z,8.30
2023-01-20T10:31:49.036Z,11.73
2023-01-20T10:34:56.664Z,11.10
2023-01-20T10:37:59.127Z,11.23
2023-01-20T10:41:16.748Z,9.93
2023-01-20T10:44:23.916Z,8.57
2023-01-20T10:48:04.011Z,9.30
2023-01-20T10:51:18.420Z,11.60
2023-01-20T10:54:35.874Z,7.45
2023-01-20T10:57:38.455Z,10.35
2023-01-20T11:00:42.217Z,8.52
2023-01-20T11:03:49.538Z,7.82
2023-01-20T11:10:10.224Z,8.18
2023-01-20T11:13:12.346Z,11.57
2023-01-20T11:16:29.087Z,20.45
2023-01-20T11:19:56.904Z,10.40
2023-01-20T11:22:58.153Z,9.90
2023-01-20T11:26:12.422Z,9.18
2023-01-20T11:29:13.478Z,8.68
2023-01-20T11:32:32.088Z,9.98
2023-01-20T11:35:33.070Z,11.07
2023-01-20T11:38:47.888Z,9.55
2023-01-20T11:41:48.616Z,10.13
2023-01-20T11:45:34.734Z,7.93
2023-01-20T11:48:36.065Z,9.77
2023-01-20T11:51:55.985Z,9.13
2023-01-20T11:55:10.924Z,9.82
2023-01-20T11:58:19.823Z,9.93
2023-01-20T12:01:47.047Z,10.20
2023-01-20T12:05:23.351Z,14.18
2023-01-20T12:08:51.175Z,15.10
2023-01-20T12:12:16.699Z,15.75
2023-01-20T12:15:31.936Z,17.67
2023-01-20T12:19:01.366Z,10.02
2023-01-20T12:22:13.186Z,11.60
2023-01-20T12:25:30.499Z,8.73
2023-01-20T12:31:43.606Z,9.73
2023-01-20T12:34:44.907Z,8.98
2023-01-20T12:38:00.360Z,13.07
2023-01-20T12:41:11.528Z,11.55
2023-01-20T12:44:38.576Z,10.55
2023-01-20T12:51:45.321Z,10.40
2023-01-20T12:55:12.262Z,9.32
2023-01-20T12:58:25.131Z,10.07
2023-01-20T13:01:56.177Z,10.13
2023-01-20T13:05:06.145Z,11.07
2023-01-20T13:08:42.012Z,9.45
2023-01-20T13:12:09.919Z,9.85
2023-01-20T13:15:39.813Z,8.85
2023-01-20T13:19:07.819Z,10.23
2023-01-20T13:22:17.054Z,14.73
2023-01-20T13:25:20.132Z,9.88
2023-01-20T13:28:28.991Z,11.75
2023-01-20T13:31:38.487Z,11.65
2023-01-20T13:34:40.433Z,9.20
2023-01-20T13:37:56.548Z,9.57
2023-01-20T13:41:03.501Z,8.13
2023-01-20T13:44:42.505Z,7.85
2023-01-20T13:48:03.573Z,6.90
2023-01-20T13:51:19.331Z,8.55
2023-01-20T13:54:28.187Z,8.30
2023-01-20T13:57:35.006Z,7.85
2023-01-20T14:00:36.134Z,10.00
2023-01-20T14:03:39.953Z,7.47
2023-01-20T14:06:50.741Z,8.27
2023-01-20T14:09:56.291Z,8.25
2023-01-20T14:12:57.196Z,6.97
2023-01-20T14:15:58.091Z,8.13
2023-01-20T14:19:05.575Z,7.82
2023-01-20T14:22:32.193Z,7.88
2023-01-20T14:25:33.328Z,8.90
2023-01-20T14:28:40.128Z,9.68
2023-01-20T14:31:44.083Z,7.90
2023-01-20T14:34:47.387Z,12.82
2023-01-20T14:37:52.377Z,9.48
2023-01-20T14:40:53.076Z,11.05
2023-01-20T14:43:53.712Z,8.32
2023-01-20T14:47:02.182Z,11.75
2023-01-20T14:50:03.692Z,9.05
2023-01-20T14:53:06.075Z,9.82
2023-01-20T14:56:18.871Z,9.35
2023-01-20T14:59:21.349Z,10.57
2023-01-20T15:02:36.870Z,9.90
2023-01-20T15:05:42.726Z,8.88
2023-01-20T15:09:05.561Z,8.05
2023-01-20T15:12:44.751Z,8.63
2023-01-20T15:15:45.801Z,11.07
2023-01-20T15:19:22.810Z,10.98
2023-01-20T15:22:26.919Z,10.25
2023-01-20T15:25:29.376Z,9.90
2023-01-20T15:28:30.533Z,9.60
2023-01-20T15:31:31.499Z,8.00
2023-01-20T15:34:32.614Z,8.68
2023-01-20T15:37:33.561Z,9.68
2023-01-20T15:40:35.762Z,10.07
2023-01-20T15:43:36.841Z,12.20
2023-01-20T15:46:40.315Z,10.73
2023-01-20T15:49:41.607Z,8.07
2023-01-20T15:52:42.962Z,10.98
2023-01-20T15:55:51.903Z,9.88
2023-01-20T15:58:53.711Z,13.07
2023-01-20T16:01:54.664Z,10.57
2023-01-20T16:04:55.974Z,11.20
2023-01-20T16:07:56.941Z,9.63
2023-01-20T16:10:57.833Z,11.57
2023-01-20T16:13:58.814Z,9.60
2023-01-20T16:16:59.569Z,8.70
2023-01-20T16:20:00.712Z,7.75
2023-01-20T16:23:01.617Z,12.43
2023-01-20T16:26:02.890Z,15.30
2023-01-20T16:29:04.978Z,9.10
2023-01-20T16:32:06.356Z,9.52
2023-01-20T16:35:08.068Z,11.50
2023-01-20T16:38:16.720Z,11.95
2023-01-20T16:41:26.273Z,9.15
2023-01-20T16:44:27.145Z,8.40
2023-01-20T16:47:28.338Z,10.70
2023-01-20T16:50:30.284Z,13.77
2023-01-20T16:53:32.009Z,10.57
2023-01-20T16:56:34.069Z,10.48
2023-01-20T16:59:35.405Z,9.77
2023-01-20T17:02:36.311Z,10.52
2023-01-20T17:05:37.155Z,10.77
2023-01-20T17:08:38.161Z,9.63
2023-01-20T17:11:40.545Z,9.90
2023-01-20T17:14:41.277Z,11.15
2023-01-20T17:17:42.684Z,11.18
2023-01-20T17:20:43.540Z,10.95
2023-01-20T17:23:44.369Z,21.40
2023-01-20T17:26:45.084Z,9.45
2023-01-20T17:29:46.382Z,12.38
2023-01-20T17:32:48.812Z,11.13
2023-01-20T17:36:02.223Z,9.80
2023-01-20T17:39:05.353Z,14.40
2023-01-20T17:42:06.069Z,16.95
2023-01-20T17:45:07.544Z,10.05
2023-01-20T17:48:08.401Z,12.68
2023-01-20T17:51:17.988Z,10.23
2023-01-20T17:54:18.817Z,13.38
2023-01-20T17:57:20.079Z,11.60
2023-01-20T18:00:21.644Z,10.18
2023-01-20T18:03:22.683Z,16.30
2023-01-20T18:06:26.458Z,10.77
2023-01-20T18:09:27.583Z,13.70
2023-01-20T18:12:29.057Z,11.10
2023-01-20T18:15:30.317Z,11.48
2023-01-20T18:18:31.723Z,12.40
2023-01-20T18:21:36.540Z,11.18
2023-01-20T18:24:37.579Z,11.35
2023-01-20T18:27:38.665Z,12.73
2023-01-20T18:30:39.689Z,14.05
2023-01-20T18:33:53.057Z,11.90
2023-01-20T18:36:53.740Z,10.88
2023-01-20T18:39:54.584Z,13.10
2023-01-20T18:42:55.932Z,13.27
2023-01-20T18:45:56.724Z,15.55
2023-01-20T18:48:57.913Z,15.10
2023-01-20T18:51:59.106Z,11.88
2023-01-20T18:55:00.044Z,10.75
2023-01-20T18:58:00.980Z,11.23
2023-01-20T19:01:19.513Z,10.73
2023-01-20T19:04:20.586Z,15.77
2023-01-20T19:07:21.365Z,12.77
2023-01-20T19:10:22.594Z,15.27
2023-01-20T19:13:23.956Z,17.58
2023-01-20T19:16:32.652Z,19.27
2023-01-20T19:19:33.530Z,15.32
2023-01-20T19:22:34.790Z,16.77
2023-01-20T19:25:35.795Z,16.88
2023-01-20T19:28:37.098Z,20.60
2023-01-20T19:31:40.085Z,35.47
2023-01-20T19:34:43.785Z,51.05
2023-01-20T19:37:44.570Z,19.15
2023-01-20T19:40:45.426Z,15.10
2023-01-20T19:43:46.528Z,14.93
2023-01-20T19:46:47.273Z,11.35
2023-01-20T19:49:47.989Z,12.15
2023-01-20T19:52:48.859Z,16.70
2023-01-20T19:55:49.720Z,13.13
2023-01-20T19:58:54.885Z,12.68
2023-01-20T20:01:55.648Z,13.90
2023-01-20T20:04:56.823Z,11.80
2023-01-20T20:07:59.482Z,11.30
2023-01-20T20:11:00.391Z,13.57
2023-01-20T20:14:04.410Z,12.00
2023-01-20T20:17:05.409Z,13.10
2023-01-20T20:20:06.567Z,12.50
2023-01-20T20:23:07.388Z,14.50
2023-01-20T20:26:12.668Z,25.17
2023-01-20T20:29:16.668Z,16.05
2023-01-20T20:32:17.694Z,19.70
2023-01-20T20:35:19.027Z,13.18
2023-01-20T20:38:19.976Z,13.40
2023-01-20T20:41:22.456Z,10.90
2023-01-20T20:44:23.711Z,14.95
2023-01-20T20:47:27.136Z,11.90
2023-01-20T20:50:28.230Z,15.90
2023-01-20T20:53:29.259Z,12.75
2023-01-20T20:56:32.023Z,12.63
2023-01-20T20:59:32.806Z,13.23
2023-01-20T21:02:34.432Z,22.08
2023-01-20T21:05:35.984Z,15.23
2023-01-20T21:08:37.710Z,19.95
2023-01-20T21:11:40.000Z,13.80
2023-01-20T21:14:42.380Z,12.65
2023-01-20T21:17:43.265Z,15.02
2023-01-20T21:20:44.424Z,15.82
2023-01-20T21:23:52.892Z,17.52
2023-01-20T21:26:53.908Z,11.98
2023-01-20T21:29:54.683Z,14.38
2023-01-20T21:32:55.592Z,14.57
2023-01-20T21:35:56.277Z,10.18
2023-01-20T21:38:59.320Z,9.57
2023-01-20T21:42:00.728Z,10.13
2023-01-20T21:45:01.700Z,10.05
2023-01-20T21:48:22.539Z,10.68
2023-01-20T21:51:41.981Z,11.00
2023-01-20T21:54:45.256Z,15.27
2023-01-20T21:57:50.201Z,12.43
2023-01-20T22:00:55.823Z,10.30
2023-01-20T22:03:56.866Z,10.30
2023-01-20T22:06:57.782Z,12.10
2023-01-20T22:09:59.032Z,21.80
2023-01-20T22:12:59.819Z,12.80
2023-01-20T22:16:05.302Z,18.65
2023-01-20T22:19:06.813Z,19.98
2023-01-20T22:22:08.081Z,16.60
2023-01-20T22:25:09.738Z,14.50
2023-01-20T22:28:10.575Z,18.20
2023-01-20T22:31:17.264Z,14.90
2023-01-20T22:34:18.783Z,11.45
2023-01-20T22:37:19.641Z,12.73
2023-01-20T22:40:20.306Z,12.43
2023-01-20T22:43:21.485Z,9.82
2023-01-20T22:46:25.442Z,18.92
2023-01-20T22:49:26.244Z,12.27
2023-01-20T22:52:27.389Z,9.75
2023-01-20T22:55:28.145Z,13.60
2023-01-20T22:58:28.794Z,11.43
2023-01-20T23:01:33.875Z,14.07
2023-01-20T23:04:35.037Z,15.77
2023-01-20T23:07:39.409Z,12.40
2023-01-20T23:10:46.361Z,12.18
2023-01-20T23:13:48.104Z,10.98
2023-01-20T23:16:48.896Z,13.93
2023-01-20T23:19:49.959Z,11.57
2023-01-20T23:22:51.192Z,13.98
2023-01-20T23:26:04.253Z,15.18
2023-01-20T23:29:05.438Z,13.13
2023-01-20T23:32:06.895Z,12.82
2023-01-20T23:35:08.125Z,12.98
2023-01-20T23:38:09.351Z,15.27
2023-01-20T23:41:11.862Z,12.55
2023-01-20T23:44:13.012Z,11.48
2023-01-20T23:47:13.710Z,11.32
2023-01-20T23:50:15.065Z,12.90
2023-01-20T23:53:15.974Z,11.65
2023-01-20T23:56:21.225Z,13.95
2023-01-20T23:59:22.450Z,15.45
